createdAt,value
2018-05-06T00:00:05.313Z,37.30
2018-05-06T00:01:05.427Z,38.50
2018-05-06T00:02:05.370Z,39.00
2018-05-06T00:03:05.384Z,38.00
2018-05-06T00:04:05.399Z,37.80
2018-05-06T00:05:05.415Z,38.90
2018-05-06T00:06:05.516Z,39.80
2018-05-06T00:07:05.444Z,39.40
2018-05-06T00:08:05.440Z,38.90
2018-05-06T00:09:05.453Z,39.40
2018-05-06T00:10:05.462Z,39.70
2018-05-06T00:11:05.578Z,39.80
2018-05-06T00:12:05.524Z,40.70
2018-05-06T00:13:05.532Z,42.40
2018-05-06T00:14:05.564Z,41.60
2018-05-06T00:15:05.558Z,41.80
2018-05-06T00:16:05.564Z,41.40
2018-05-06T00:17:05.730Z,41.60
2018-05-06T00:18:05.623Z,41.30
2018-05-06T00:19:05.606Z,40.00
2018-05-06T00:20:05.658Z,40.30
2018-05-06T00:21:05.659Z,41.60
2018-05-06T00:22:05.776Z,48.70
2018-05-06T00:23:05.695Z,42.80
2018-05-06T00:24:05.719Z,46.40
2018-05-06T00:25:05.736Z,41.30
2018-05-06T00:26:05.751Z,43.00
2018-05-06T00:27:05.843Z,42.50
2018-05-06T00:28:05.765Z,41.60
2018-05-06T00:29:05.779Z,41.40
2018-05-06T00:30:05.803Z,40.80
2018-05-06T00:31:05.832Z,41.20
2018-05-06T00:32:05.932Z,39.70
2018-05-06T00:33:05.862Z,41.10
2018-05-06T00:34:05.857Z,43.10
2018-05-06T00:35:05.872Z,42.70
2018-05-06T00:36:05.909Z,43.60
2018-05-06T00:37:06.002Z,43.00
2018-05-06T00:38:05.941Z,43.60
2018-05-06T00:39:05.944Z,43.50
2018-05-06T00:40:05.960Z,44.70
2018-05-06T00:41:05.963Z,44.90
2018-05-06T00:42:06.087Z,45.60
2018-05-06T00:43:06.021Z,47.90
2018-05-06T00:44:06.012Z,48.00
2018-05-06T00:45:06.053Z,48.60
2018-05-06T00:46:06.055Z,50.00
2018-05-06T00:47:06.162Z,50.10
2018-05-06T00:48:06.093Z,48.40
2018-05-06T00:49:06.104Z,50.20
2018-05-06T00:50:06.108Z,52.40
2018-05-06T00:51:06.153Z,54.50
2018-05-06T00:52:06.254Z,54.50
2018-05-06T00:53:06.170Z,55.00
2018-05-06T00:54:06.176Z,55.40
2018-05-06T00:55:06.200Z,55.80
2018-05-06T00:56:06.198Z,56.30
2018-05-06T00:57:06.356Z,54.80
2018-05-06T00:58:06.262Z,56.50
2018-05-06T00:59:06.253Z,58.60
2018-05-06T01:00:06.300Z,60.10
2018-05-06T01:01:06.308Z,58.40
2018-05-06T01:02:06.398Z,57.80
2018-05-06T01:03:06.339Z,63.20
2018-05-06T01:04:06.359Z,63.00
2018-05-06T01:05:06.362Z,62.30
2018-05-06T01:06:06.358Z,62.10
2018-05-06T01:07:06.505Z,61.40
2018-05-06T01:08:06.418Z,65.10
2018-05-06T01:09:06.417Z,65.50
2018-05-06T01:10:06.425Z,66.30
2018-05-06T01:11:06.491Z,67.00
2018-05-06T01:12:06.554Z,65.70
2018-05-06T01:13:06.472Z,64.30
2018-05-06T01:14:06.513Z,67.30
2018-05-06T01:15:06.504Z,71.80
2018-05-06T01:16:06.520Z,71.90
2018-05-06T01:17:06.564Z,71.40
2018-05-06T01:18:06.685Z,67.60
2018-05-06T01:19:06.564Z,70.70
2018-05-06T01:20:06.611Z,72.20
2018-05-06T01:21:06.615Z,73.80
2018-05-06T01:22:06.614Z,70.20
2018-05-06T01:23:06.740Z,70.20
2018-05-06T01:24:06.645Z,69.80
2018-05-06T01:25:06.665Z,71.50
2018-05-06T01:26:06.678Z,67.40
2018-05-06T01:27:06.697Z,68.30
2018-05-06T01:28:06.813Z,68.30
2018-05-06T01:29:06.726Z,69.20
2018-05-06T01:30:06.768Z,68.10
2018-05-06T01:31:06.758Z,66.00
2018-05-06T01:32:06.772Z,64.90
2018-05-06T01:33:06.918Z,66.20
2018-05-06T01:34:06.832Z,65.40
2018-05-06T01:35:06.825Z,65.80
2018-05-06T01:36:06.836Z,65.20
2018-05-06T01:37:06.881Z,67.90
2018-05-06T01:38:06.966Z,67.90
2018-05-06T01:39:06.883Z,68.80
2018-05-06T01:40:06.899Z,68.10
2018-05-06T01:41:06.929Z,68.50
2018-05-06T01:42:06.935Z,70.90
2018-05-06T01:43:07.075Z,68.90
2018-05-06T01:44:06.961Z,70.10
2018-05-06T01:45:06.973Z,70.20
2018-05-06T01:46:06.991Z,72.50
2018-05-06T01:47:07.005Z,73.00
2018-05-06T01:48:07.128Z,73.40
2018-05-06T01:49:07.075Z,74.60
2018-05-06T01:50:07.054Z,75.30
2018-05-06T01:51:07.074Z,76.60
2018-05-06T01:52:07.085Z,77.10
2018-05-06T01:53:07.236Z,74.00
2018-05-06T01:54:07.144Z,74.60
2018-05-06T01:55:07.161Z,80.10
2018-05-06T01:56:07.149Z,80.00
2018-05-06T01:57:07.183Z,76.60
2018-05-06T01:58:07.289Z,74.30
2018-05-06T01:59:07.199Z,73.90
2018-05-06T02:00:07.223Z,66.70
2018-05-06T02:01:07.227Z,63.90
2018-05-06T02:02:07.277Z,64.50
2018-05-06T02:03:07.384Z,64.40
2018-05-06T02:04:07.301Z,64.70
2018-05-06T02:05:07.299Z,64.10
2018-05-06T02:06:07.333Z,64.10
2018-05-06T02:07:07.323Z,61.40
2018-05-06T02:08:07.436Z,62.40
2018-05-06T02:09:07.383Z,62.80
2018-05-06T02:10:07.385Z,62.20
2018-05-06T02:11:07.387Z,61.20
2018-05-06T02:12:07.398Z,60.70
2018-05-06T02:13:07.525Z,60.10
2018-05-06T02:14:07.434Z,58.30
2018-05-06T02:15:07.451Z,57.70
2018-05-06T02:16:07.488Z,52.70
2018-05-06T02:17:07.480Z,53.50
2018-05-06T02:18:07.519Z,52.80
2018-05-06T02:19:07.622Z,54.10
2018-05-06T02:20:07.538Z,52.70
2018-05-06T02:21:07.547Z,54.40
2018-05-06T02:22:07.564Z,52.80
2018-05-06T02:23:07.583Z,51.90
2018-05-06T02:24:07.717Z,53.30
2018-05-06T02:25:07.630Z,52.80
2018-05-06T02:26:07.626Z,53.60
2018-05-06T02:27:07.661Z,52.70
2018-05-06T02:28:07.647Z,53.50
2018-05-06T02:29:07.793Z,54.30
2018-05-06T02:30:07.746Z,55.70
2018-05-06T02:31:07.712Z,68.70
2018-05-06T02:32:07.742Z,66.50
2018-05-06T02:33:07.742Z,58.60
2018-05-06T02:34:07.878Z,58.90
2018-05-06T02:35:07.789Z,61.60
2018-05-06T02:36:07.780Z,59.20
2018-05-06T02:37:07.809Z,59.30
2018-05-06T02:38:07.812Z,62.40
2018-05-06T02:39:07.952Z,60.30
2018-05-06T02:40:07.841Z,58.00
2018-05-06T02:41:07.881Z,57.90
2018-05-06T02:42:07.873Z,59.00
2018-05-06T02:43:07.901Z,56.30
2018-05-06T02:44:08.032Z,56.10
2018-05-06T02:45:07.919Z,59.10
2018-05-06T02:46:07.945Z,56.90
2018-05-06T02:47:07.959Z,58.60
2018-05-06T02:48:07.967Z,60.10
2018-05-06T02:49:08.080Z,56.50
2018-05-06T02:50:08.007Z,57.20
2018-05-06T02:51:08.012Z,56.50
2018-05-06T02:52:08.026Z,56.00
2018-05-06T02:53:08.040Z,58.20
2018-05-06T02:54:08.184Z,59.20
2018-05-06T02:55:08.080Z,58.00
2018-05-06T02:56:08.092Z,60.40
2018-05-06T02:57:08.133Z,59.10
2018-05-06T02:58:08.135Z,57.50
2018-05-06T02:59:08.239Z,59.50
2018-05-06T03:00:08.165Z,60.40
2018-05-06T03:01:08.192Z,62.90
2018-05-06T03:02:08.197Z,64.80
2018-05-06T03:03:08.229Z,62.70
2018-05-06T03:04:08.344Z,64.10
2018-05-06T03:05:08.262Z,62.10
2018-05-06T03:06:08.269Z,63.60
2018-05-06T03:07:08.288Z,63.30
2018-05-06T03:08:08.300Z,63.60
2018-05-06T03:09:08.395Z,64.40
2018-05-06T03:10:08.301Z,65.80
2018-05-06T03:11:08.318Z,63.80
2018-05-06T03:12:08.364Z,65.60
2018-05-06T03:13:08.366Z,64.90
2018-05-06T03:14:08.472Z,64.80
2018-05-06T03:15:08.412Z,65.70
2018-05-06T03:16:08.398Z,65.80
2018-05-06T03:17:08.438Z,65.10
2018-05-06T03:18:08.440Z,64.80
2018-05-06T03:19:08.571Z,65.60
2018-05-06T03:20:08.486Z,68.50
2018-05-06T03:21:08.484Z,65.20
2018-05-06T03:22:08.519Z,64.90
2018-05-06T03:23:08.521Z,65.30
2018-05-06T03:24:08.687Z,65.40
2018-05-06T03:25:08.540Z,67.40
2018-05-06T03:26:08.602Z,67.00
2018-05-06T03:27:08.596Z,67.60
2018-05-06T03:28:08.595Z,65.70
2018-05-06T03:29:08.702Z,68.20
2018-05-06T03:30:08.616Z,66.70
2018-05-06T03:31:08.633Z,65.90
2018-05-06T03:32:08.644Z,64.10
2018-05-06T03:33:08.663Z,62.20
2018-05-06T03:34:08.776Z,64.70
2018-05-06T03:35:08.701Z,64.50
2018-05-06T03:36:08.714Z,64.80
2018-05-06T03:37:08.747Z,65.70
2018-05-06T03:38:08.764Z,64.50
2018-05-06T03:39:08.856Z,63.20
2018-05-06T03:40:08.781Z,65.40
2018-05-06T03:41:08.811Z,69.00
2018-05-06T03:42:08.800Z,66.30
2018-05-06T03:43:08.847Z,66.20
2018-05-06T03:44:08.929Z,66.50
2018-05-06T03:45:08.846Z,67.30
2018-05-06T03:46:08.862Z,65.70
2018-05-06T03:47:08.877Z,64.40
2018-05-06T03:48:08.916Z,66.30
2018-05-06T03:49:09.032Z,66.60
2018-05-06T03:50:08.952Z,69.10
2018-05-06T03:51:08.940Z,67.60
2018-05-06T03:52:08.951Z,68.60
2018-05-06T03:53:08.995Z,67.60
2018-05-06T03:54:09.080Z,68.30
2018-05-06T03:55:08.993Z,65.60
2018-05-06T03:56:09.011Z,66.00
2018-05-06T03:57:09.051Z,71.20
2018-05-06T03:58:09.042Z,67.20
2018-05-06T03:59:09.237Z,65.20
2018-05-06T04:00:09.107Z,64.30
2018-05-06T04:01:09.089Z,68.90
2018-05-06T04:02:09.106Z,69.70
2018-05-06T04:03:09.145Z,70.40
2018-05-06T04:04:09.232Z,71.30
2018-05-06T04:05:09.187Z,73.30
2018-05-06T04:06:09.173Z,71.00
2018-05-06T04:07:09.178Z,72.90
2018-05-06T04:08:09.200Z,69.50
2018-05-06T04:09:09.310Z,72.40
2018-05-06T04:10:09.251Z,75.60
2018-05-06T04:11:09.267Z,72.50
2018-05-06T04:12:09.273Z,77.70
2018-05-06T04:13:09.284Z,70.10
2018-05-06T04:14:09.385Z,71.30
2018-05-06T04:15:09.327Z,77.80
2018-05-06T04:16:09.317Z,71.20
2018-05-06T04:17:09.346Z,72.70
2018-05-06T04:18:09.348Z,69.50
2018-05-06T04:19:09.457Z,71.60
2018-05-06T04:20:09.402Z,76.80
2018-05-06T04:21:09.490Z,73.00
2018-05-06T04:22:09.405Z,69.50
2018-05-06T04:23:09.444Z,71.10
2018-05-06T04:24:09.567Z,70.20
2018-05-06T04:25:09.452Z,78.00
2018-05-06T04:26:09.497Z,83.00
2018-05-06T04:27:09.488Z,70.70
2018-05-06T04:28:09.494Z,73.80
2018-05-06T04:29:09.663Z,68.00
2018-05-06T04:30:09.552Z,67.10
2018-05-06T04:31:09.536Z,72.10
2018-05-06T04:32:09.555Z,73.60
2018-05-06T04:33:09.578Z,73.60
2018-05-06T04:34:09.716Z,69.70
2018-05-06T04:35:09.628Z,76.00
2018-05-06T04:36:09.615Z,68.20
2018-05-06T04:37:09.661Z,67.60
2018-05-06T04:38:09.677Z,73.70
2018-05-06T04:39:09.772Z,71.50
2018-05-06T04:40:09.676Z,74.10
2018-05-06T04:41:09.716Z,77.20
2018-05-06T04:42:09.703Z,81.20
2018-05-06T04:43:09.718Z,82.60
2018-05-06T04:44:09.937Z,84.20
2018-05-06T04:45:09.779Z,80.30
2018-05-06T04:46:09.762Z,84.20
2018-05-06T04:47:09.780Z,67.30
2018-05-06T04:48:09.807Z,72.70
2018-05-06T04:49:09.923Z,71.80
2018-05-06T04:50:09.837Z,75.00
2018-05-06T04:51:09.862Z,68.40
2018-05-06T04:52:09.880Z,69.60
2018-05-06T04:53:09.879Z,74.80
2018-05-06T04:54:09.977Z,73.50
2018-05-06T04:55:09.922Z,77.70
2018-05-06T04:56:09.935Z,83.20
2018-05-06T05:00:39.245Z,80.00
2018-05-06T05:01:39.264Z,74.30
2018-05-06T05:02:39.287Z,75.10
2018-05-06T05:03:39.292Z,73.70
2018-05-06T05:04:39.471Z,69.90
2018-05-06T05:05:39.317Z,69.10
2018-05-06T05:06:39.362Z,68.50
2018-05-06T05:07:39.412Z,70.10
2018-05-06T05:08:39.425Z,67.30
2018-05-06T05:09:39.541Z,64.60
2018-05-06T05:10:39.581Z,66.90
2018-05-06T05:11:39.422Z,67.00
2018-05-06T05:12:39.428Z,67.40
2018-05-06T05:13:39.468Z,60.30
2018-05-06T05:14:39.457Z,62.40
2018-05-06T05:15:39.477Z,63.40
2018-05-06T05:16:39.588Z,62.90
2018-05-06T05:17:39.502Z,67.60
2018-05-06T05:18:39.515Z,63.20
2018-05-06T05:19:39.562Z,66.20
2018-05-06T05:20:39.542Z,60.80
2018-05-06T05:21:39.689Z,67.20
2018-05-06T05:22:39.573Z,72.00
2018-05-06T05:23:39.592Z,84.10
2018-05-06T05:24:39.601Z,81.00
2018-05-06T05:25:39.623Z,87.30
2018-05-06T05:26:39.746Z,91.40
2018-05-06T05:27:39.678Z,93.80
2018-05-06T05:28:39.689Z,95.30
2018-05-06T05:29:39.706Z,100.10
2018-05-06T05:30:39.704Z,102.10
2018-05-06T05:31:39.811Z,103.40
2018-05-06T05:32:39.717Z,102.90
2018-05-06T05:33:39.742Z,102.10
2018-05-06T05:34:39.816Z,100.50
2018-05-06T05:35:39.763Z,106.70
2018-05-06T05:36:39.933Z,108.30
2018-05-06T05:37:39.797Z,106.90
2018-05-06T05:38:39.837Z,106.40
2018-05-06T05:39:39.835Z,114.30
2018-05-06T05:40:39.841Z,113.90
2018-05-06T05:41:39.957Z,110.90
2018-05-06T05:42:39.864Z,118.20
2018-05-06T05:43:39.911Z,110.60
2018-05-06T05:44:39.907Z,116.90
2018-05-06T05:45:39.914Z,123.30
2018-05-06T05:46:40.026Z,126.60
2018-05-06T05:47:40.018Z,122.50
2018-05-06T05:48:39.980Z,124.60
2018-05-06T05:49:39.972Z,119.10
2018-05-06T05:50:39.986Z,122.50
2018-05-06T05:51:40.105Z,121.70
2018-05-06T05:52:40.028Z,121.30
2018-05-06T05:53:40.054Z,120.40
2018-05-06T05:54:40.068Z,114.90
2018-05-06T05:55:40.115Z,118.70
2018-05-06T05:56:40.222Z,120.00
2018-05-06T05:57:40.088Z,113.90
2018-05-06T05:58:40.093Z,123.80
2018-05-06T05:59:40.112Z,123.80
2018-05-06T06:00:40.155Z,124.20
2018-05-06T06:01:40.271Z,126.00
2018-05-06T06:02:40.187Z,125.60
2018-05-06T06:03:40.196Z,127.50
2018-05-06T06:04:40.188Z,127.90
2018-05-06T06:05:40.215Z,139.60
2018-05-06T06:06:40.310Z,133.30
2018-05-06T06:07:40.257Z,136.40
2018-05-06T06:08:40.259Z,132.90
2018-05-06T06:09:40.286Z,140.00
2018-05-06T06:10:40.273Z,141.60
2018-05-06T06:11:40.439Z,142.30
2018-05-06T06:12:40.317Z,143.20
2018-05-06T06:13:40.344Z,141.50
2018-05-06T06:14:40.358Z,140.10
2018-05-06T06:15:40.483Z,141.70
2018-05-06T06:16:40.385Z,137.80
2018-05-06T06:17:40.502Z,140.10
2018-05-06T06:18:40.402Z,138.20
2018-05-06T06:19:40.410Z,150.20
2018-05-06T06:20:40.446Z,145.30
2018-05-06T06:21:40.461Z,138.10
2018-05-06T06:22:40.461Z,144.80
2018-05-06T06:23:40.562Z,137.80
2018-05-06T06:24:40.558Z,140.60
2018-05-06T06:25:40.496Z,144.80
2018-05-06T06:26:40.503Z,154.50
2018-05-06T06:27:40.550Z,159.40
2018-05-06T06:28:40.634Z,146.20
2018-05-06T06:29:40.575Z,152.90
2018-05-06T06:30:40.557Z,145.50
2018-05-06T06:31:40.603Z,135.40
2018-05-06T06:32:40.614Z,135.90
2018-05-06T06:33:40.707Z,141.40
2018-05-06T06:34:40.620Z,141.30
2018-05-06T06:35:40.642Z,131.70
2018-05-06T06:36:40.647Z,132.20
2018-05-06T06:37:40.666Z,133.90
2018-05-06T06:38:40.805Z,146.10
2018-05-06T06:39:40.719Z,143.80
2018-05-06T06:40:40.703Z,137.40
2018-05-06T06:41:40.722Z,134.90
2018-05-06T06:42:40.735Z,138.40
2018-05-06T06:43:40.851Z,142.80
2018-05-06T06:44:40.792Z,133.50
2018-05-06T06:45:40.776Z,134.20
2018-05-06T06:46:40.794Z,135.20
2018-05-06T06:47:40.818Z,125.70
2018-05-06T06:48:40.936Z,129.40
2018-05-06T06:49:40.838Z,135.30
2018-05-06T06:50:40.852Z,137.00
2018-05-06T06:51:40.863Z,139.20
2018-05-06T06:52:40.903Z,145.10
2018-05-06T06:53:40.996Z,156.00
2018-05-06T06:54:40.902Z,162.50
2018-05-06T06:55:40.981Z,152.00
2018-05-06T06:56:40.963Z,152.30
2018-05-06T06:57:40.951Z,141.30
2018-05-06T06:58:41.091Z,159.60
2018-05-06T06:59:40.992Z,132.30
2018-05-06T07:00:40.991Z,148.70
2018-05-06T07:01:41.009Z,242.10
2018-05-06T07:02:41.045Z,159.10
2018-05-06T07:03:41.137Z,150.70
2018-05-06T07:04:41.047Z,142.70
2018-05-06T07:05:41.067Z,145.10
2018-05-06T07:06:41.104Z,140.40
2018-05-06T07:07:41.090Z,132.30
2018-05-06T07:08:41.208Z,138.10
2018-05-06T07:09:41.131Z,139.10
2018-05-06T07:10:41.135Z,140.30
2018-05-06T07:11:41.173Z,134.90
2018-05-06T07:12:41.180Z,137.70
2018-05-06T07:13:41.284Z,139.50
2018-05-06T07:14:41.218Z,134.60
2018-05-06T07:15:41.211Z,135.90
2018-05-06T07:16:41.239Z,145.10
2018-05-06T07:17:41.233Z,150.00
2018-05-06T07:18:41.345Z,147.90
2018-05-06T07:19:41.268Z,148.40
2018-05-06T07:20:41.283Z,144.20
2018-05-06T07:21:41.317Z,175.40
2018-05-06T07:22:41.336Z,186.40
2018-05-06T07:23:41.417Z,193.40
2018-05-06T07:24:41.349Z,194.30
2018-05-06T07:25:41.346Z,168.80
2018-05-06T07:26:41.362Z,143.50
2018-05-06T07:27:41.400Z,153.10
2018-05-06T07:28:41.392Z,150.70
2018-05-06T07:29:41.528Z,134.40
2018-05-06T07:30:41.415Z,153.90
2018-05-06T07:31:41.445Z,152.90
2018-05-06T07:32:41.456Z,151.30
2018-05-06T07:33:41.486Z,155.00
2018-05-06T07:34:41.574Z,134.90
2018-05-06T07:35:41.520Z,138.70
2018-05-06T07:36:41.495Z,141.00
2018-05-06T07:37:41.544Z,145.00
2018-05-06T07:38:41.527Z,132.10
2018-05-06T07:39:41.675Z,136.50
2018-05-06T07:40:41.555Z,134.40
2018-05-06T07:41:41.566Z,131.40
2018-05-06T07:42:41.600Z,130.80
2018-05-06T07:43:41.596Z,136.60
2018-05-06T07:44:41.716Z,138.90
2018-05-06T07:45:41.634Z,140.50
2018-05-06T07:46:41.647Z,128.10
2018-05-06T07:47:41.659Z,126.80
2018-05-06T07:48:41.695Z,155.60
2018-05-06T07:49:41.866Z,155.00
2018-05-06T07:50:41.699Z,156.30
2018-05-06T07:51:41.728Z,150.50
2018-05-06T07:52:41.752Z,162.50
2018-05-06T07:53:41.759Z,162.60
2018-05-06T07:54:41.853Z,166.60
2018-05-06T07:55:41.770Z,154.60
2018-05-06T07:56:41.790Z,157.30
2018-05-06T07:57:41.805Z,156.90
2018-05-06T07:58:41.849Z,159.40
2018-05-06T07:59:41.990Z,156.00
2018-05-06T08:00:41.858Z,166.20
2018-05-06T08:01:41.858Z,164.20
2018-05-06T08:02:41.901Z,146.60
2018-05-06T08:03:41.911Z,144.90
2018-05-06T08:04:41.997Z,161.40
2018-05-06T08:05:41.927Z,157.40
2018-05-06T08:06:41.927Z,153.40
2018-05-06T08:07:41.965Z,145.70
2018-05-06T08:08:41.954Z,142.60
2018-05-06T08:09:42.069Z,152.00
2018-05-06T08:10:42.063Z,159.40
2018-05-06T08:11:42.030Z,140.50
2018-05-06T08:12:42.014Z,134.40
2018-05-06T08:13:42.031Z,144.60
2018-05-06T08:14:42.143Z,132.10
2018-05-06T08:15:42.091Z,124.90
2018-05-06T08:16:42.186Z,128.00
2018-05-06T08:17:42.084Z,130.10
2018-05-06T08:18:42.102Z,135.70
2018-05-06T08:19:42.216Z,130.90
2018-05-06T08:20:42.155Z,143.50
2018-05-06T08:21:42.142Z,136.10
2018-05-06T08:22:42.160Z,134.20
2018-05-06T08:23:42.186Z,130.40
2018-05-06T08:24:42.309Z,129.90
2018-05-06T08:25:42.229Z,138.80
2018-05-06T08:26:42.225Z,128.40
2018-05-06T08:27:42.231Z,117.30
2018-05-06T08:28:42.240Z,120.40
2018-05-06T08:29:42.384Z,123.10
2018-05-06T08:30:42.275Z,126.50
2018-05-06T08:31:42.281Z,130.20
2018-05-06T08:32:42.300Z,132.80
2018-05-06T08:33:42.311Z,138.10
2018-05-06T08:34:42.436Z,141.00
2018-05-06T08:35:42.372Z,126.50
2018-05-06T08:36:42.367Z,118.10
2018-05-06T08:37:42.451Z,123.90
2018-05-06T08:38:42.391Z,139.10
2018-05-06T08:39:42.402Z,93.90
2018-05-06T08:40:42.525Z,102.60
2018-05-06T08:41:42.447Z,102.10
2018-05-06T08:42:42.458Z,111.00
2018-05-06T08:43:42.473Z,113.50
2018-05-06T08:44:42.481Z,114.10
2018-05-06T08:45:42.618Z,109.10
2018-05-06T08:46:42.504Z,113.70
2018-05-06T08:47:42.548Z,110.50
2018-05-06T08:48:42.560Z,111.90
2018-05-06T08:49:42.583Z,113.60
2018-05-06T08:50:42.744Z,111.00
2018-05-06T08:51:42.581Z,107.70
2018-05-06T08:52:42.594Z,108.70
2018-05-06T08:53:42.624Z,114.90
2018-05-06T08:54:42.629Z,106.50
2018-05-06T08:55:42.736Z,109.30
2018-05-06T08:56:42.651Z,103.80
2018-05-06T08:57:42.691Z,105.70
2018-05-06T08:58:42.679Z,105.60
2018-05-06T08:59:42.789Z,94.30
2018-05-06T09:00:42.811Z,99.10
2018-05-06T09:01:42.727Z,97.10
2018-05-06T09:02:42.738Z,101.00
2018-05-06T09:03:42.783Z,97.30
2018-05-06T09:04:42.795Z,101.10
2018-05-06T09:05:42.906Z,102.30
2018-05-06T09:06:42.794Z,97.80
2018-05-06T09:07:42.812Z,100.70
2018-05-06T09:08:42.828Z,99.60
2018-05-06T09:09:42.841Z,103.70
2018-05-06T09:10:42.954Z,98.40
2018-05-06T09:11:42.893Z,98.70
2018-05-06T09:12:42.883Z,97.30
2018-05-06T09:13:42.892Z,101.00
2018-05-06T09:14:42.937Z,96.70
2018-05-06T09:15:43.099Z,103.90
2018-05-06T09:16:42.964Z,96.20
2018-05-06T09:17:42.974Z,98.40
2018-05-06T09:18:42.966Z,94.60
2018-05-06T09:19:43.100Z,94.80
2018-05-06T09:20:43.120Z,93.70
2018-05-06T09:21:43.014Z,92.20
2018-05-06T09:22:43.035Z,92.80
2018-05-06T09:23:43.041Z,91.90
2018-05-06T09:24:43.082Z,95.00
2018-05-06T09:25:43.297Z,92.60
2018-05-06T09:26:43.100Z,89.00
2018-05-06T09:27:43.124Z,89.20
2018-05-06T09:28:43.109Z,86.10
2018-05-06T09:29:43.158Z,86.00
2018-05-06T09:30:43.319Z,80.40
2018-05-06T09:31:43.181Z,86.30
2018-05-06T09:32:43.179Z,86.50
2018-05-06T09:33:43.189Z,83.40
2018-05-06T09:34:43.200Z,90.10
2018-05-06T09:35:43.317Z,85.00
2018-05-06T09:36:43.232Z,86.50
2018-05-06T09:37:43.309Z,87.70
2018-05-06T09:38:43.286Z,85.10
2018-05-06T09:39:43.298Z,84.30
2018-05-06T09:40:43.408Z,84.40
2018-05-06T09:41:43.310Z,85.80
2018-05-06T09:42:43.339Z,86.40
2018-05-06T09:43:43.353Z,76.80
2018-05-06T09:44:43.341Z,81.70
2018-05-06T09:45:43.378Z,74.30
2018-05-06T09:46:43.497Z,79.30
2018-05-06T09:47:43.438Z,75.10
2018-05-06T09:48:43.431Z,71.40
2018-05-06T09:49:43.425Z,70.00
2018-05-06T09:50:43.429Z,68.90
2018-05-06T09:51:43.594Z,69.80
2018-05-06T09:52:43.485Z,70.00
2018-05-06T09:53:43.493Z,86.50
2018-05-06T09:54:43.484Z,89.20
2018-05-06T09:55:43.504Z,91.90
2018-05-06T09:56:43.620Z,89.90
2018-05-06T09:57:43.532Z,92.10
2018-05-06T09:58:43.554Z,91.30
2018-05-06T09:59:43.570Z,92.50
2018-05-06T10:00:43.598Z,94.90
2018-05-06T10:01:43.685Z,88.80
2018-05-06T10:02:43.607Z,91.00
2018-05-06T10:03:43.624Z,94.50
2018-05-06T10:04:43.739Z,88.50
2018-05-06T10:05:43.671Z,88.80
2018-05-06T10:06:43.771Z,86.80
2018-05-06T10:07:43.697Z,86.10
2018-05-06T10:08:43.686Z,81.60
2018-05-06T10:09:43.701Z,81.20
2018-05-06T10:10:43.718Z,80.60
2018-05-06T10:11:43.857Z,79.70
2018-05-06T10:12:43.748Z,80.10
2018-05-06T10:13:43.769Z,76.50
2018-05-06T10:14:43.775Z,74.50
2018-05-06T10:15:43.795Z,75.50
2018-05-06T10:16:43.930Z,72.30
2018-05-06T10:17:43.845Z,77.80
2018-05-06T10:18:43.833Z,77.80
2018-05-06T10:19:43.860Z,72.30
2018-05-06T10:20:43.864Z,72.70
2018-05-06T10:21:44.001Z,67.60
2018-05-06T10:22:43.891Z,61.40
2018-05-06T10:23:43.908Z,63.80
2018-05-06T10:24:43.993Z,68.40
2018-05-06T10:25:43.939Z,64.30
2018-05-06T10:26:44.079Z,64.20
2018-05-06T10:27:43.976Z,62.70
2018-05-06T10:28:43.980Z,58.90
2018-05-06T10:29:43.995Z,59.90
2018-05-06T10:30:44.013Z,59.70
2018-05-06T10:31:44.143Z,57.30
2018-05-06T10:32:44.039Z,59.50
2018-05-06T10:33:44.080Z,57.10
2018-05-06T10:34:44.073Z,56.90
2018-05-06T10:35:44.119Z,56.70
2018-05-06T10:36:44.235Z,53.70
2018-05-06T10:37:44.142Z,58.30
2018-05-06T10:38:44.132Z,58.00
2018-05-06T10:39:44.160Z,57.40
2018-05-06T10:40:44.168Z,51.50
2018-05-06T10:41:44.279Z,47.70
2018-05-06T10:42:44.197Z,50.90
2018-05-06T10:43:44.223Z,49.60
2018-05-06T10:44:44.228Z,48.10
2018-05-06T10:45:44.272Z,49.90
2018-05-06T10:46:44.370Z,49.80
2018-05-06T10:47:44.288Z,49.30
2018-05-06T10:48:44.301Z,46.90
2018-05-06T10:49:44.322Z,47.30
2018-05-06T10:50:44.333Z,48.10
2018-05-06T10:51:44.349Z,49.30
2018-05-06T10:52:44.462Z,46.90
2018-05-06T10:53:44.391Z,48.50
2018-05-06T10:54:44.417Z,45.80
2018-05-06T10:55:44.408Z,47.00
2018-05-06T10:56:44.454Z,45.00
2018-05-06T10:57:44.538Z,44.70
2018-05-06T10:58:44.458Z,43.60
2018-05-06T10:59:44.504Z,45.80
2018-05-06T11:00:44.519Z,46.20
2018-05-06T11:01:44.537Z,48.60
2018-05-06T11:02:44.625Z,50.80
2018-05-06T11:03:44.539Z,48.30
2018-05-06T11:04:44.583Z,48.00
2018-05-06T11:05:44.582Z,49.00
2018-05-06T11:06:44.618Z,49.10
2018-05-06T11:07:44.783Z,51.00
2018-05-06T11:08:44.625Z,46.80
2018-05-06T11:09:44.666Z,48.50
2018-05-06T11:10:44.653Z,53.40
2018-05-06T11:11:44.697Z,48.70
2018-05-06T11:12:44.795Z,50.10
2018-05-06T11:13:44.709Z,49.10
2018-05-06T11:14:44.756Z,47.60
2018-05-06T11:15:44.770Z,46.40
2018-05-06T11:16:44.760Z,47.70
2018-05-06T11:17:44.882Z,47.50
2018-05-06T11:18:44.794Z,47.50
2018-05-06T11:19:44.836Z,46.80
2018-05-06T11:20:44.826Z,49.20
2018-05-06T11:21:44.865Z,46.90
2018-05-06T11:22:44.970Z,48.90
2018-05-06T11:23:44.878Z,53.00
2018-05-06T11:24:44.903Z,48.70
2018-05-06T11:25:44.935Z,48.40
2018-05-06T11:26:44.954Z,48.70
2018-05-06T11:27:45.043Z,47.10
2018-05-06T11:28:44.960Z,47.50
2018-05-06T11:29:44.977Z,48.40
2018-05-06T11:30:45.027Z,44.50
2018-05-06T11:31:45.011Z,43.40
2018-05-06T11:32:45.123Z,42.50
2018-05-06T11:33:45.051Z,42.40
2018-05-06T11:34:45.093Z,42.30
2018-05-06T11:35:45.151Z,41.80
2018-05-06T11:36:45.127Z,40.80
2018-05-06T11:37:45.214Z,42.80
2018-05-06T11:38:45.158Z,42.00
2018-05-06T11:39:45.153Z,46.70
2018-05-06T11:40:45.171Z,45.10
2018-05-06T11:41:45.198Z,48.50
2018-05-06T11:42:45.304Z,47.40
2018-05-06T11:43:45.221Z,47.50
2018-05-06T11:44:45.242Z,46.60
2018-05-06T11:45:45.270Z,45.20
2018-05-06T11:46:45.280Z,44.60
2018-05-06T11:47:45.446Z,46.20
2018-05-06T11:48:45.339Z,44.60
2018-05-06T11:49:45.349Z,46.00
2018-05-06T11:50:45.353Z,44.90
2018-05-06T11:51:45.376Z,45.50
2018-05-06T11:52:45.516Z,45.50
2018-05-06T11:53:45.409Z,41.30
2018-05-06T11:54:45.436Z,40.10
2018-05-06T11:55:45.471Z,30.00
2018-05-06T11:56:45.491Z,29.80
2018-05-06T11:57:45.608Z,27.80
2018-05-06T11:58:45.502Z,26.90
2018-05-06T11:59:45.546Z,28.10
2018-05-06T12:00:45.640Z,30.00
2018-05-06T12:01:45.551Z,29.90
2018-05-06T12:02:45.700Z,28.10
2018-05-06T12:03:45.617Z,27.10
2018-05-06T12:04:45.609Z,27.60
2018-05-06T12:05:45.627Z,24.60
2018-05-06T12:06:45.675Z,28.80
2018-05-06T12:07:45.823Z,27.30
2018-05-06T12:08:45.696Z,26.60
2018-05-06T12:09:45.707Z,27.10
2018-05-06T12:10:45.733Z,25.50
2018-05-06T12:11:45.741Z,26.40
2018-05-06T12:12:45.926Z,23.70
2018-05-06T12:13:45.815Z,21.70
2018-05-06T12:14:45.795Z,21.60
2018-05-06T12:15:45.818Z,22.10
2018-05-06T12:16:45.853Z,24.50
2018-05-06T12:17:45.956Z,24.60
2018-05-06T12:18:45.903Z,24.30
2018-05-06T12:19:45.897Z,23.60
2018-05-06T12:20:45.948Z,22.60
2018-05-06T12:21:45.937Z,23.00
2018-05-06T12:22:46.053Z,24.40
2018-05-06T12:23:45.997Z,22.60
2018-05-06T12:24:45.986Z,22.00
2018-05-06T12:25:46.014Z,23.10
2018-05-06T12:26:46.049Z,21.60
2018-05-06T12:27:46.158Z,21.30
2018-05-06T12:28:46.073Z,21.00
2018-05-06T12:29:46.117Z,22.70
2018-05-06T12:30:46.125Z,22.50
2018-05-06T12:31:46.130Z,21.90
2018-05-06T12:32:46.275Z,23.00
2018-05-06T12:33:46.202Z,22.10
2018-05-06T12:34:46.216Z,23.90
2018-05-06T12:35:46.207Z,23.40
2018-05-06T12:36:46.245Z,22.00
2018-05-06T12:37:46.437Z,21.10
2018-05-06T12:38:46.281Z,22.00
2018-05-06T12:39:46.291Z,21.50
2018-05-06T12:40:46.339Z,20.70
2018-05-06T12:41:46.359Z,20.50
2018-05-06T12:42:46.478Z,21.60
2018-05-06T12:43:46.401Z,20.40
2018-05-06T12:44:46.394Z,21.10
2018-05-06T12:45:46.419Z,21.50
2018-05-06T12:46:46.445Z,21.10
2018-05-06T12:47:46.566Z,21.50
2018-05-06T12:48:46.477Z,21.20